Ocotillo, California
Current Conditions -  °F | °C
As of 11:56 PM on Monday 20 Oct 2014 (Local Time) from KNJK Reporting Station
Clear Clear  
Wind Chill: 24°   Ceiling: Unl
Heat Index: 24°   Visibility: 10mi
Dew Point:   Wind: 5mph
Humidity: 40%   Direction: 260°W
Pressure: 29.77"   Gusts: NA
Location:  32.74°N, 115.99°W
Report Text: KNJK 210656Z AUTO 26004KT 10SM CLR 24/09 A2977 RMK AO2 SLP096 T02390094 $
Loading
Personal Weather Stations






























Interactive Weather Map
Tropical Storm Tracking
New forecast layout! Learn more

10-Day Weather Forecast

Advertisements
Track Severe Weather on mobile